createdAt,value
2019-05-06T00:00:58.755Z,99.20
2019-05-06T00:03:24.819Z,99.30
2019-05-06T00:05:54.297Z,99.40
2019-05-06T00:08:23.690Z,99.50
2019-05-06T00:10:54.099Z,99.70
2019-05-06T00:13:24.085Z,99.80
2019-05-06T00:15:54.215Z,99.90
2019-05-06T00:18:24.477Z,99.90
2019-05-06T00:20:54.830Z,99.90
2019-05-06T00:23:38.156Z,99.90
2019-05-06T00:26:10.595Z,99.90
2019-05-06T00:28:44.682Z,99.90
2019-05-06T00:31:17.254Z,99.90
2019-05-06T00:33:45.654Z,99.90
2019-05-06T00:36:14.224Z,99.90
2019-05-06T00:38:44.834Z,99.90
2019-05-06T00:41:24.693Z,99.90
2019-05-06T00:43:54.569Z,99.90
2019-05-06T00:46:24.328Z,99.90
2019-05-06T00:48:54.235Z,99.90
2019-05-06T00:51:24.141Z,99.90
2019-05-06T00:54:00.414Z,99.90
2019-05-06T00:56:29.072Z,99.90
2019-05-06T00:58:57.614Z,99.90
2019-05-06T01:01:29.639Z,99.90
2019-05-06T01:03:56.429Z,99.90
2019-05-06T01:06:24.824Z,99.90
2019-05-06T01:08:54.403Z,99.90
2019-05-06T01:11:23.896Z,99.90
2019-05-06T01:14:05.742Z,99.90
2019-05-06T01:16:34.615Z,99.90
2019-05-06T01:19:04.723Z,99.90
2019-05-06T01:21:34.207Z,99.90
2019-05-06T01:24:04.041Z,99.90
2019-05-06T01:26:33.745Z,99.90
2019-05-06T01:29:03.912Z,99.90
2019-05-06T01:31:40.601Z,99.90
2019-05-06T01:34:04.275Z,99.90
2019-05-06T01:36:34.353Z,99.90
2019-05-06T01:39:07.778Z,99.90
2019-05-06T01:41:40.535Z,99.90
2019-05-06T01:44:08.993Z,99.90
2019-05-06T01:46:37.567Z,99.90
2019-05-06T01:49:06.142Z,99.90
2019-05-06T01:51:34.899Z,99.90
2019-05-06T01:54:03.871Z,99.90
2019-05-06T01:56:33.680Z,99.90
2019-05-06T01:59:04.354Z,99.90
2019-05-06T02:01:34.111Z,99.90
2019-05-06T02:04:04.436Z,99.90
2019-05-06T02:06:34.318Z,99.90
2019-05-06T02:09:04.607Z,99.90
2019-05-06T02:11:33.714Z,99.90
2019-05-06T02:14:04.553Z,99.90
2019-05-06T02:16:34.317Z,99.90
2019-05-06T02:19:04.010Z,99.90
2019-05-06T02:21:34.295Z,99.90
2019-05-06T02:24:16.135Z,99.90
2019-05-06T02:26:44.534Z,99.90
2019-05-06T02:29:26.483Z,99.90
2019-05-06T02:32:19.903Z,99.90
2019-05-06T02:34:39.983Z,99.90
2019-05-06T02:37:14.674Z,99.90
2019-05-06T02:39:43.892Z,99.90
2019-05-06T02:42:13.046Z,99.90
2019-05-06T02:44:44.251Z,99.90
2019-05-06T02:47:13.826Z,99.90
2019-05-06T02:49:46.984Z,99.90
2019-05-06T02:52:15.442Z,99.90
2019-05-06T02:54:43.847Z,99.90
2019-05-06T02:57:13.129Z,99.90
2019-05-06T02:59:44.132Z,99.90
2019-05-06T03:02:14.017Z,99.90
2019-05-06T03:04:43.756Z,99.90
2019-05-06T03:07:14.511Z,99.90
2019-05-06T03:09:44.546Z,99.90
2019-05-06T03:12:13.520Z,99.90
2019-05-06T03:14:43.638Z,99.90
2019-05-06T03:17:14.074Z,99.90
2019-05-06T03:19:45.944Z,99.90
2019-05-06T03:22:24.131Z,99.90
2019-05-06T03:24:54.431Z,99.90
2019-05-06T03:27:23.614Z,99.90
2019-05-06T03:29:53.658Z,99.90
2019-05-06T03:32:29.891Z,99.90
2019-05-06T03:35:16.116Z,99.90
2019-05-06T03:37:23.829Z,99.90
2019-05-06T03:39:53.135Z,99.90
2019-05-06T03:42:23.100Z,99.90
2019-05-06T03:44:53.730Z,99.90
2019-05-06T03:47:42.720Z,99.90
2019-05-06T03:50:13.114Z,99.90
2019-05-06T03:52:43.012Z,99.90
2019-05-06T03:55:13.513Z,99.90
2019-05-06T03:57:42.842Z,99.90
2019-05-06T04:00:15.933Z,99.90
2019-05-06T04:02:44.363Z,99.90
2019-05-06T04:05:13.535Z,99.90
2019-05-06T04:07:45.476Z,99.90
2019-05-06T04:10:13.718Z,99.90
2019-05-06T04:12:44.219Z,99.90
2019-05-06T04:15:14.278Z,99.90
2019-05-06T04:17:54.128Z,99.90
2019-05-06T04:20:30.216Z,99.90
2019-05-06T04:23:06.487Z,99.90
2019-05-06T04:25:52.939Z,99.90
2019-05-06T04:28:34.180Z,99.90
2019-05-06T04:31:02.765Z,99.90
2019-05-06T04:33:33.214Z,99.90
2019-05-06T04:36:03.595Z,99.90
2019-05-06T04:38:33.668Z,99.90
2019-05-06T04:41:02.895Z,99.90
2019-05-06T04:43:33.761Z,99.90
2019-05-06T04:46:03.184Z,99.90
2019-05-06T04:48:33.021Z,99.90
2019-05-06T04:51:03.460Z,99.90
2019-05-06T04:53:34.137Z,99.90
2019-05-06T04:56:03.940Z,99.90
2019-05-06T04:58:33.534Z,99.90
2019-05-06T05:01:04.116Z,99.90
2019-05-06T05:03:33.619Z,99.90
2019-05-06T05:06:05.609Z,99.90
2019-05-06T05:08:39.239Z,99.90
2019-05-06T05:11:24.846Z,99.90
2019-05-06T05:14:02.816Z,99.90
2019-05-06T05:16:33.238Z,99.90
2019-05-06T05:19:03.539Z,99.90
2019-05-06T05:21:32.343Z,99.90
2019-05-06T05:24:02.071Z,99.90
2019-05-06T05:26:32.369Z,99.90
2019-05-06T05:29:02.797Z,99.90
2019-05-06T05:31:33.219Z,99.90
2019-05-06T05:34:02.290Z,99.90
2019-05-06T05:36:32.851Z,99.90
2019-05-06T05:39:03.352Z,99.90
2019-05-06T05:41:33.232Z,99.90
2019-05-06T05:44:06.415Z,99.90
2019-05-06T05:46:34.859Z,99.90
2019-05-06T05:49:08.050Z,99.90
2019-05-06T05:51:36.439Z,99.90
2019-05-06T05:54:04.870Z,99.80
2019-05-06T05:56:33.689Z,99.80
2019-05-06T05:59:03.352Z,99.60
2019-05-06T06:01:32.663Z,99.30
2019-05-06T06:04:03.177Z,99.00
2019-05-06T06:06:33.129Z,98.90
2019-05-06T06:09:03.041Z,98.90
2019-05-06T06:11:42.455Z,98.90
2019-05-06T06:14:29.004Z,98.70
2019-05-06T06:17:25.922Z,98.60
2019-05-06T06:20:12.307Z,98.40
2019-05-06T06:22:42.526Z,98.40
2019-05-06T06:25:14.196Z,98.30
2019-05-06T06:27:49.425Z,98.10
2019-05-06T06:30:19.594Z,98.10
2019-05-06T06:32:47.979Z,98.00
2019-05-06T06:35:22.756Z,97.80
2019-05-06T06:37:53.248Z,97.60
2019-05-06T06:40:22.891Z,97.50
2019-05-06T06:42:53.012Z,97.30
2019-05-06T06:45:23.065Z,97.30
2019-05-06T06:47:52.047Z,97.20
2019-05-06T06:50:22.076Z,97.10
2019-05-06T06:52:52.491Z,96.90
2019-05-06T06:55:22.530Z,96.90
2019-05-06T06:57:57.358Z,97.00
2019-05-06T07:00:33.582Z,97.00
2019-05-06T07:03:03.958Z,97.10
2019-05-06T07:05:33.993Z,97.30
2019-05-06T07:08:03.042Z,97.50
2019-05-06T07:10:43.437Z,97.60
2019-05-06T07:13:16.008Z,97.60
2019-05-06T07:15:44.649Z,97.80
2019-05-06T07:18:13.651Z,98.00
2019-05-06T07:21:03.725Z,98.20
2019-05-06T07:23:32.671Z,98.50
2019-05-06T07:26:03.029Z,98.70
2019-05-06T07:28:32.689Z,98.80
2019-05-06T07:31:14.971Z,99.00
2019-05-06T07:33:33.466Z,99.00
2019-05-06T07:36:02.290Z,99.00
2019-05-06T07:38:32.647Z,99.00
2019-05-06T07:41:04.508Z,99.00
2019-05-06T07:43:52.575Z,98.90
2019-05-06T07:46:42.723Z,98.70
2019-05-06T07:49:12.609Z,98.20
2019-05-06T07:51:42.011Z,98.00
2019-05-06T07:54:12.282Z,97.80
2019-05-06T07:56:42.781Z,97.50
2019-05-06T07:59:12.774Z,97.20
2019-05-06T08:01:43.910Z,97.10
2019-05-06T08:04:12.211Z,96.50
2019-05-06T08:06:42.732Z,96.50
2019-05-06T08:09:12.964Z,96.40
2019-05-06T08:11:42.295Z,96.40
2019-05-06T08:14:13.065Z,96.50
2019-05-06T08:16:44.482Z,96.60
2019-05-06T08:19:13.007Z,96.60
2019-05-06T08:21:45.745Z,96.50
2019-05-06T08:24:14.222Z,96.80
2019-05-06T08:26:45.264Z,96.90
2019-05-06T08:29:15.946Z,97.10
2019-05-06T08:31:43.971Z,97.10
2019-05-06T08:34:12.533Z,97.10
2019-05-06T08:36:42.805Z,97.10
2019-05-06T08:39:13.078Z,97.20
2019-05-06T08:41:42.351Z,97.30
2019-05-06T08:44:12.757Z,97.30
2019-05-06T08:46:43.279Z,96.90
2019-05-06T08:49:12.314Z,96.80
2019-05-06T08:51:45.290Z,96.50
2019-05-06T08:54:18.015Z,96.10
2019-05-06T08:56:46.789Z,95.60
2019-05-06T08:59:15.256Z,95.20
2019-05-06T09:01:48.151Z,94.70
2019-05-06T09:04:16.644Z,94.40
2019-05-06T09:06:45.383Z,93.60
2019-05-06T09:09:13.779Z,93.20
2019-05-06T09:11:43.166Z,92.80
2019-05-06T09:14:13.723Z,92.60
2019-05-06T09:16:43.755Z,92.60
2019-05-06T09:19:12.916Z,92.70
2019-05-06T09:21:45.694Z,92.80
2019-05-06T09:24:12.840Z,93.10
2019-05-06T09:26:43.287Z,93.20
2019-05-06T09:29:19.267Z,93.00
2019-05-06T09:31:49.325Z,92.90
2019-05-06T09:34:23.395Z,92.50
2019-05-06T09:37:09.671Z,92.80
2019-05-06T09:39:38.103Z,93.00
2019-05-06T09:42:06.502Z,93.00
2019-05-06T09:44:35.022Z,92.70
2019-05-06T09:47:04.666Z,92.40
2019-05-06T09:49:34.771Z,92.00
2019-05-06T09:52:03.182Z,91.60
2019-05-06T09:54:38.763Z,91.60
2019-05-06T09:57:22.132Z,91.30
2019-05-06T09:59:52.646Z,91.20
2019-05-06T10:02:23.058Z,91.20
2019-05-06T10:04:52.201Z,91.30
2019-05-06T10:07:22.535Z,91.20
2019-05-06T10:09:52.672Z,91.00
2019-05-06T10:12:21.062Z,90.40
2019-05-06T10:14:49.548Z,90.00
2019-05-06T10:17:17.936Z,88.90
2019-05-06T10:19:46.346Z,87.80
2019-05-06T10:22:14.750Z,87.70
2019-05-06T10:24:43.475Z,84.90
2019-05-06T10:27:12.275Z,83.70
2019-05-06T10:29:45.448Z,80.70
2019-05-06T10:32:24.590Z,78.40
2019-05-06T10:34:53.058Z,75.00
2019-05-06T10:37:26.277Z,72.10
2019-05-06T10:40:13.479Z,72.30
2019-05-06T10:42:48.011Z,70.50
2019-05-06T10:45:19.479Z,71.20
2019-05-06T10:47:47.879Z,70.00
2019-05-06T10:50:16.304Z,69.20
2019-05-06T10:53:02.753Z,69.70
2019-05-06T10:55:32.482Z,69.60
2019-05-06T10:58:02.634Z,70.00
2019-05-06T11:00:33.162Z,70.60
2019-05-06T11:03:15.304Z,71.40
2019-05-06T11:05:43.961Z,72.50
2019-05-06T11:08:12.775Z,73.30
2019-05-06T11:10:45.116Z,74.30
2019-05-06T11:13:12.939Z,76.20
2019-05-06T11:15:43.347Z,78.10
2019-05-06T11:18:13.479Z,80.30
2019-05-06T11:20:43.983Z,82.20
2019-05-06T11:23:14.176Z,83.70
2019-05-06T11:25:43.168Z,85.30
2019-05-06T11:28:29.570Z,86.70
2019-05-06T11:31:02.212Z,88.00
2019-05-06T11:33:32.944Z,88.10
2019-05-06T11:36:03.103Z,87.60
2019-05-06T11:38:32.258Z,86.70
2019-05-06T11:41:00.989Z,85.00
2019-05-06T11:43:29.518Z,81.90
2019-05-06T11:45:57.927Z,78.10
2019-05-06T11:48:26.731Z,76.70
2019-05-06T11:50:56.858Z,75.50
2019-05-06T11:53:25.256Z,75.10
2019-05-06T11:55:54.750Z,73.60
2019-05-06T12:01:25.643Z,69.90
2019-05-06T12:03:54.155Z,69.20
2019-05-06T12:06:22.853Z,67.80
2019-05-06T12:08:52.476Z,66.50
2019-05-06T12:11:23.410Z,65.90
2019-05-06T12:13:53.269Z,65.00
2019-05-06T12:16:26.065Z,62.80
2019-05-06T12:18:52.898Z,62.10
2019-05-06T12:21:23.142Z,61.00
2019-05-06T12:23:53.874Z,58.60
2019-05-06T12:26:21.908Z,58.10
2019-05-06T12:28:52.924Z,57.40
2019-05-06T12:31:20.449Z,56.90
2019-05-06T12:33:50.025Z,56.70
2019-05-06T12:36:20.427Z,56.70
2019-05-06T12:39:07.200Z,56.30
2019-05-06T12:41:37.251Z,54.30
2019-05-06T12:44:05.778Z,54.30
2019-05-06T12:46:35.831Z,53.50
2019-05-06T12:49:04.494Z,52.40
2019-05-06T12:51:32.895Z,51.40
2019-05-06T12:54:03.517Z,51.70
2019-05-06T12:56:32.748Z,51.00
2019-05-06T12:59:02.052Z,49.00
2019-05-06T13:01:33.927Z,48.70
2019-05-06T13:04:04.129Z,49.80
2019-05-06T13:06:33.206Z,50.00
2019-05-06T13:09:04.925Z,50.90
2019-05-06T13:11:31.663Z,50.80
2019-05-06T13:14:00.834Z,50.80
2019-05-06T13:16:30.249Z,51.00
2019-05-06T13:18:58.710Z,51.20
2019-05-06T13:21:27.207Z,51.70
2019-05-06T13:23:57.260Z,52.70
2019-05-06T13:26:25.666Z,54.00
2019-05-06T13:28:55.694Z,54.80
2019-05-06T13:31:25.582Z,54.30
2019-05-06T13:34:10.801Z,54.50
2019-05-06T13:36:39.283Z,54.10
2019-05-06T13:39:32.542Z,53.30
2019-05-06T13:41:38.072Z,52.90
2019-05-06T13:44:13.103Z,53.20
2019-05-06T13:46:42.958Z,52.80
2019-05-06T13:49:13.477Z,52.10
2019-05-06T13:51:43.748Z,51.60
2019-05-06T13:54:15.477Z,51.30
2019-05-06T13:56:43.016Z,51.70
2019-05-06T13:59:12.853Z,50.80
2019-05-06T14:01:44.144Z,50.90
2019-05-06T14:04:14.617Z,50.90
2019-05-06T14:06:43.362Z,50.90
2019-05-06T14:09:27.998Z,51.30
2019-05-06T14:11:42.122Z,51.50
2019-05-06T14:14:12.592Z,51.60
2019-05-06T14:16:42.723Z,51.10
2019-05-06T14:19:12.996Z,51.20
2019-05-06T14:21:43.166Z,51.30
2019-05-06T14:24:13.393Z,48.70
2019-05-06T14:26:44.696Z,48.70
2019-05-06T14:29:20.422Z,48.70
2019-05-06T14:31:53.482Z,48.70
2019-05-06T14:34:23.008Z,48.60
2019-05-06T14:36:53.359Z,48.30
2019-05-06T14:39:42.677Z,48.70
2019-05-06T14:41:57.564Z,49.20
2019-05-06T14:44:25.954Z,50.20
2019-05-06T14:47:04.907Z,50.70
2019-05-06T14:49:33.377Z,50.50
2019-05-06T14:52:02.771Z,50.40
2019-05-06T14:54:33.082Z,49.80
2019-05-06T14:57:06.194Z,48.70
2019-05-06T14:59:34.626Z,46.90
2019-05-06T15:02:03.039Z,46.20
2019-05-06T15:04:32.425Z,45.60
2019-05-06T15:07:02.162Z,45.20
2019-05-06T15:09:32.961Z,44.40
2019-05-06T15:12:02.349Z,43.90
2019-05-06T15:14:33.078Z,44.40
2019-05-06T15:17:02.276Z,45.00
2019-05-06T15:19:30.855Z,45.80
2019-05-06T15:21:59.256Z,46.10
2019-05-06T15:24:27.819Z,46.60
2019-05-06T15:26:56.342Z,47.00
2019-05-06T15:29:24.747Z,46.10
2019-05-06T15:32:03.671Z,46.20
2019-05-06T15:34:53.034Z,45.30
2019-05-06T15:37:21.553Z,45.40
2019-05-06T15:39:52.056Z,46.00
2019-05-06T15:42:22.319Z,47.10
2019-05-06T15:44:50.242Z,47.40
2019-05-06T15:47:18.626Z,47.20
2019-05-06T15:49:47.063Z,47.20
2019-05-06T15:52:15.526Z,47.40
2019-05-06T15:54:44.002Z,48.00
2019-05-06T15:57:12.467Z,48.50
2019-05-06T15:59:43.957Z,49.10
2019-05-06T16:02:11.045Z,49.30
2019-05-06T16:04:39.704Z,49.40
2019-05-06T16:07:08.186Z,49.50
2019-05-06T16:09:36.622Z,49.70
2019-05-06T16:12:05.085Z,49.70
2019-05-06T16:14:34.868Z,49.40
2019-05-06T16:17:03.935Z,49.30
2019-05-06T16:19:33.616Z,49.20
2019-05-06T16:22:04.162Z,49.10
2019-05-06T16:24:37.684Z,48.70
2019-05-06T16:27:06.098Z,48.80
2019-05-06T16:29:37.233Z,48.90
2019-05-06T16:32:06.943Z,49.20
2019-05-06T16:34:35.448Z,49.50
2019-05-06T16:37:04.360Z,49.90
2019-05-06T16:39:33.232Z,50.20
2019-05-06T16:42:03.629Z,50.40
2019-05-06T16:44:31.867Z,50.80
2019-05-06T16:47:02.680Z,51.00
2019-05-06T16:49:30.398Z,50.90
2019-05-06T16:51:58.806Z,51.30
2019-05-06T16:54:27.870Z,51.20
2019-05-06T16:56:58.035Z,51.30
2019-05-06T16:59:26.528Z,51.80
2019-05-06T17:01:57.482Z,52.30
2019-05-06T17:04:32.807Z,52.60
2019-05-06T17:07:00.471Z,52.50
2019-05-06T17:09:28.903Z,53.00
2019-05-06T17:11:57.366Z,53.20
2019-05-06T17:14:25.904Z,53.30
2019-05-06T17:16:54.318Z,53.00
2019-05-06T17:19:23.150Z,53.20
2019-05-06T17:21:52.436Z,53.50
2019-05-06T17:24:22.002Z,53.90
2019-05-06T17:26:53.924Z,54.10
2019-05-06T17:29:25.006Z,54.30
2019-05-06T17:31:58.034Z,54.30
2019-05-06T17:34:37.456Z,54.20
2019-05-06T17:37:07.514Z,54.20
2019-05-06T17:39:35.910Z,54.30
2019-05-06T17:42:04.370Z,54.60
2019-05-06T17:44:32.873Z,54.90
2019-05-06T17:47:03.142Z,55.20
2019-05-06T17:49:33.166Z,55.50
2019-05-06T17:52:03.570Z,55.60
2019-05-06T17:54:32.613Z,55.90
2019-05-06T17:57:04.453Z,56.30
2019-05-06T17:59:33.142Z,56.60
2019-05-06T18:02:03.520Z,56.90
2019-05-06T18:04:34.223Z,57.30
2019-05-06T18:07:02.050Z,57.70
2019-05-06T18:09:30.536Z,58.20
2019-05-06T18:11:59.725Z,58.50
2019-05-06T18:14:28.686Z,58.80
2019-05-06T18:16:57.149Z,59.10
2019-05-06T18:19:25.557Z,59.40
2019-05-06T18:21:54.198Z,59.80
2019-05-06T18:24:23.151Z,60.20
2019-05-06T18:26:52.849Z,60.60
2019-05-06T18:29:22.221Z,61.30
2019-05-06T18:31:52.489Z,62.20
2019-05-06T18:34:23.036Z,62.80
2019-05-06T18:36:52.486Z,63.70
2019-05-06T18:39:22.358Z,64.20
2019-05-06T18:41:53.176Z,64.80
2019-05-06T18:44:22.782Z,65.60
2019-05-06T18:46:53.060Z,66.20
2019-05-06T18:49:22.366Z,66.90
2019-05-06T18:51:51.975Z,67.60
2019-05-06T18:54:22.048Z,68.20
2019-05-06T18:56:52.225Z,68.70
2019-05-06T18:59:22.983Z,69.20
2019-05-06T19:01:50.982Z,69.90
2019-05-06T19:04:33.558Z,70.60
2019-05-06T19:07:12.269Z,71.20
2019-05-06T19:09:37.021Z,71.70
2019-05-06T19:12:05.405Z,72.20
2019-05-06T19:14:33.926Z,73.00
2019-05-06T19:17:02.787Z,73.60
2019-05-06T19:19:34.252Z,74.20
2019-05-06T19:22:02.954Z,74.90
2019-05-06T19:24:33.471Z,75.60
2019-05-06T19:27:02.184Z,76.50
2019-05-06T19:29:32.719Z,77.30
2019-05-06T19:32:03.042Z,78.20
2019-05-06T19:34:34.515Z,78.90
2019-05-06T19:37:02.425Z,79.90
2019-05-06T19:39:32.918Z,80.80
2019-05-06T19:42:02.874Z,81.80
2019-05-06T19:44:31.228Z,82.50
2019-05-06T19:46:59.686Z,83.50
2019-05-06T19:49:28.099Z,84.60
2019-05-06T19:51:56.503Z,85.90
2019-05-06T19:54:24.906Z,87.50
2019-05-06T19:56:53.309Z,89.40
2019-05-06T19:59:21.855Z,90.60
2019-05-06T20:01:52.320Z,91.10
2019-05-06T20:04:22.567Z,91.60
2019-05-06T20:06:55.328Z,91.80
2019-05-06T20:09:25.366Z,92.00
2019-05-06T20:11:58.230Z,91.90
2019-05-06T20:14:26.630Z,91.70
2019-05-06T20:16:55.030Z,91.60
2019-05-06T20:19:30.837Z,91.50
2019-05-06T20:21:53.783Z,91.30
2019-05-06T20:24:22.582Z,91.30
2019-05-06T20:26:52.709Z,91.30
2019-05-06T20:29:22.457Z,91.50
2019-05-06T20:31:53.317Z,91.60
2019-05-06T20:34:22.435Z,91.70
2019-05-06T20:36:52.835Z,91.80
2019-05-06T20:39:23.000Z,92.20
2019-05-06T20:41:51.338Z,92.50
2019-05-06T20:44:19.752Z,92.70
2019-05-06T20:46:48.151Z,92.60
2019-05-06T20:49:16.630Z,92.60
2019-05-06T20:51:45.042Z,92.50
2019-05-06T20:54:13.682Z,92.70
2019-05-06T20:56:42.350Z,93.10
2019-05-06T20:59:12.158Z,93.30
2019-05-06T21:01:42.478Z,93.60
2019-05-06T21:04:12.986Z,93.90
2019-05-06T21:06:42.615Z,94.40
2019-05-06T21:09:12.600Z,94.80
2019-05-06T21:11:42.120Z,95.20
2019-05-06T21:14:13.240Z,95.60
2019-05-06T21:16:42.284Z,96.00
2019-05-06T21:19:12.624Z,96.30
2019-05-06T21:21:43.212Z,96.60
2019-05-06T21:24:12.956Z,96.80
2019-05-06T21:26:42.902Z,97.10
2019-05-06T21:29:12.758Z,97.30
2019-05-06T21:31:42.235Z,97.50
2019-05-06T21:34:12.834Z,97.80
2019-05-06T21:36:42.271Z,98.00
2019-05-06T21:39:12.922Z,98.10
2019-05-06T21:41:42.782Z,98.30
2019-05-06T21:44:13.191Z,98.40
2019-05-06T21:46:42.866Z,98.60
2019-05-06T21:49:12.114Z,98.80
2019-05-06T21:51:42.517Z,99.00
2019-05-06T21:54:12.648Z,99.20
2019-05-06T21:56:42.416Z,99.30
2019-05-06T21:59:12.873Z,99.40
2019-05-06T22:01:42.984Z,99.50
2019-05-06T22:04:12.738Z,99.80
2019-05-06T22:06:42.885Z,99.50
2019-05-06T22:09:12.478Z,99.40
2019-05-06T22:11:42.420Z,99.30
2019-05-06T22:14:12.296Z,99.20
2019-05-06T22:16:40.981Z,99.20
2019-05-06T22:19:09.420Z,99.20
2019-05-06T22:21:56.203Z,99.30
2019-05-06T22:24:33.131Z,99.40
2019-05-06T22:27:02.873Z,99.50
2019-05-06T22:29:33.063Z,99.70
2019-05-06T22:32:02.822Z,99.80
2019-05-06T22:34:32.958Z,99.90
2019-05-06T22:37:03.348Z,99.90
2019-05-06T22:39:34.036Z,99.90
2019-05-06T22:42:01.770Z,99.90
2019-05-06T22:44:32.339Z,99.90
2019-05-06T22:47:02.596Z,99.90
2019-05-06T22:49:32.076Z,99.90
2019-05-06T22:52:02.844Z,99.90
2019-05-06T22:54:32.045Z,99.90
2019-05-06T22:57:02.323Z,99.90
2019-05-06T22:59:32.825Z,99.90
2019-05-06T23:02:02.580Z,99.90
2019-05-06T23:04:32.635Z,99.90
2019-05-06T23:07:02.835Z,99.90
2019-05-06T23:09:32.563Z,99.90
2019-05-06T23:12:02.398Z,99.90
2019-05-06T23:14:36.477Z,99.90
2019-05-06T23:17:02.885Z,99.90
2019-05-06T23:19:31.864Z,99.90
2019-05-06T23:22:04.018Z,99.90
2019-05-06T23:24:32.128Z,99.90
2019-05-06T23:27:02.371Z,99.90
2019-05-06T23:29:30.867Z,99.90
2019-05-06T23:31:59.257Z,99.90
2019-05-06T23:34:27.662Z,99.90
2019-05-06T23:36:59.149Z,99.90
2019-05-06T23:40:05.713Z,99.90
2019-05-06T23:43:12.513Z,99.90
2019-05-06T23:46:17.718Z,99.90
2019-05-06T23:49:22.880Z,99.90
2019-05-06T23:52:27.983Z,99.90
2019-05-06T23:55:32.829Z,99.90
2019-05-06T23:58:00.151Z,99.90
